sensor_id;sensor_type;location;lat;lon;timestamp;temperature;humidity
75190;HTU21D;69198;44.694;37.790;2023-04-28T00:00:54;15.06;81.97
75190;HTU21D;69198;44.694;37.790;2023-04-28T00:01:55;15.04;81.97
75190;HTU21D;69198;44.694;37.790;2023-04-28T00:02:56;15.03;81.96
75190;HTU21D;69198;44.694;37.790;2023-04-28T00:03:57;15.02;81.96
75190;HTU21D;69198;44.694;37.790;2023-04-28T00:04:58;15.01;82.01
75190;HTU21D;69198;44.694;37.790;2023-04-28T00:05:59;15.03;82.07
75190;HTU21D;69198;44.694;37.790;2023-04-28T00:07:00;15.02;82.10
75190;HTU21D;69198;44.694;37.790;2023-04-28T00:08:02;15.04;82.13
75190;HTU21D;69198;44.694;37.790;2023-04-28T00:09:03;15.04;82.13
75190;HTU21D;69198;44.694;37.790;2023-04-28T00:10:04;15.06;82.17
75190;HTU21D;69198;44.694;37.790;2023-04-28T00:11:10;15.08;82.15
75190;HTU21D;69198;44.694;37.790;2023-04-28T00:12:11;15.06;82.18
75190;HTU21D;69198;44.694;37.790;2023-04-28T00:13:12;15.06;82.23
75190;HTU21D;69198;44.694;37.790;2023-04-28T00:14:13;15.09;82.31
75190;HTU21D;69198;44.694;37.790;2023-04-28T00:15:14;15.09;82.35
75190;HTU21D;69198;44.694;37.790;2023-04-28T00:16:15;15.11;82.30
75190;HTU21D;69198;44.694;37.790;2023-04-28T00:17:16;15.11;82.23
75190;HTU21D;69198;44.694;37.790;2023-04-28T00:18:18;15.11;82.12
75190;HTU21D;69198;44.694;37.790;2023-04-28T00:19:19;15.13;81.88
75190;HTU21D;69198;44.694;37.790;2023-04-28T00:20:20;15.15;81.55
75190;HTU21D;69198;44.694;37.790;2023-04-28T00:21:22;15.17;81.07
75190;HTU21D;69198;44.694;37.790;2023-04-28T00:22:23;15.22;80.69
75190;HTU21D;69198;44.694;37.790;2023-04-28T00:23:24;15.25;80.24
75190;HTU21D;69198;44.694;37.790;2023-04-28T00:24:25;15.29;79.75
75190;HTU21D;69198;44.694;37.790;2023-04-28T00:25:26;15.30;79.34
75190;HTU21D;69198;44.694;37.790;2023-04-28T00:26:27;15.34;78.87
75190;HTU21D;69198;44.694;37.790;2023-04-28T00:27:28;15.38;78.42
75190;HTU21D;69198;44.694;37.790;2023-04-28T00:28:29;15.40;78.08
75190;HTU21D;69198;44.694;37.790;2023-04-28T00:31:46;15.34;78.01
75190;HTU21D;69198;44.694;37.790;2023-04-28T00:32:47;15.36;77.79
75190;HTU21D;69198;44.694;37.790;2023-04-28T00:33:48;15.36;77.65
75190;HTU21D;69198;44.694;37.790;2023-04-28T00:34:50;15.37;77.56
75190;HTU21D;69198;44.694;37.790;2023-04-28T00:35:58;15.37;77.47
75190;HTU21D;69198;44.694;37.790;2023-04-28T00:36:59;15.33;77.53
75190;HTU21D;69198;44.694;37.790;2023-04-28T00:38:00;15.32;77.51
75190;HTU21D;69198;44.694;37.790;2023-04-28T00:39:01;15.32;77.53
75190;HTU21D;69198;44.694;37.790;2023-04-28T00:40:02;15.32;77.53
75190;HTU21D;69198;44.694;37.790;2023-04-28T00:41:04;15.31;77.64
75190;HTU21D;69198;44.694;37.790;2023-04-28T00:42:05;15.30;77.82
75190;HTU21D;69198;44.694;37.790;2023-04-28T00:43:06;15.29;78.01
75190;HTU21D;69198;44.694;37.790;2023-04-28T00:44:07;15.29;78.16
75190;HTU21D;69198;44.694;37.790;2023-04-28T00:45:08;15.27;78.25
75190;HTU21D;69198;44.694;37.790;2023-04-28T00:46:11;15.26;78.33
75190;HTU21D;69198;44.694;37.790;2023-04-28T00:47:16;15.22;78.43
75190;HTU21D;69198;44.694;37.790;2023-04-28T00:48:17;15.18;78.55
75190;HTU21D;69198;44.694;37.790;2023-04-28T00:49:19;15.18;78.66
75190;HTU21D;69198;44.694;37.790;2023-04-28T00:50:21;15.15;78.79
75190;HTU21D;69198;44.694;37.790;2023-04-28T00:51:23;15.16;78.98
75190;HTU21D;69198;44.694;37.790;2023-04-28T00:52:24;15.14;79.10
75190;HTU21D;69198;44.694;37.790;2023-04-28T00:53:26;15.13;79.23
75190;HTU21D;69198;44.694;37.790;2023-04-28T00:54:27;15.12;79.40
75190;HTU21D;69198;44.694;37.790;2023-04-28T00:55:31;15.11;79.63
75190;HTU21D;69198;44.694;37.790;2023-04-28T00:56:33;15.08;79.77
75190;HTU21D;69198;44.694;37.790;2023-04-28T00:57:35;15.04;79.91
75190;HTU21D;69198;44.694;37.790;2023-04-28T00:58:36;15.02;80.10
75190;HTU21D;69198;44.694;37.790;2023-04-28T00:59:37;15.01;80.28
75190;HTU21D;69198;44.694;37.790;2023-04-28T01:00:38;15.01;80.49
75190;HTU21D;69198;44.694;37.790;2023-04-28T01:01:40;15.00;80.75
75190;HTU21D;69198;44.694;37.790;2023-04-28T01:02:41;15.00;80.91
75190;HTU21D;69198;44.694;37.790;2023-04-28T01:03:42;14.99;81.04
75190;HTU21D;69198;44.694;37.790;2023-04-28T01:04:44;14.98;81.17
75190;HTU21D;69198;44.694;37.790;2023-04-28T01:05:46;14.96;81.35
75190;HTU21D;69198;44.694;37.790;2023-04-28T01:06:52;14.96;81.57
75190;HTU21D;69198;44.694;37.790;2023-04-28T01:07:55;14.95;81.70
75190;HTU21D;69198;44.694;37.790;2023-04-28T01:08:56;14.95;81.84
75190;HTU21D;69198;44.694;37.790;2023-04-28T01:09:57;14.94;81.99
75190;HTU21D;69198;44.694;37.790;2023-04-28T01:11:04;14.93;82.07
75190;HTU21D;69198;44.694;37.790;2023-04-28T01:12:25;14.87;82.13
75190;HTU21D;69198;44.694;37.790;2023-04-28T01:13:29;14.87;82.26
75190;HTU21D;69198;44.694;37.790;2023-04-28T01:14:31;14.86;82.41
75190;HTU21D;69198;44.694;37.790;2023-04-28T01:15:32;14.85;82.57
75190;HTU21D;69198;44.694;37.790;2023-04-28T01:16:34;14.84;82.74
75190;HTU21D;69198;44.694;37.790;2023-04-28T01:17:36;14.82;82.84
75190;HTU21D;69198;44.694;37.790;2023-04-28T01:18:38;14.81;83.00
75190;HTU21D;69198;44.694;37.790;2023-04-28T01:19:42;14.80;83.04
75190;HTU21D;69198;44.694;37.790;2023-04-28T01:20:43;14.81;83.11
75190;HTU21D;69198;44.694;37.790;2023-04-28T01:21:44;14.81;83.23
75190;HTU21D;69198;44.694;37.790;2023-04-28T01:22:55;14.78;83.24
75190;HTU21D;69198;44.694;37.790;2023-04-28T01:23:57;14.78;83.30
75190;HTU21D;69198;44.694;37.790;2023-04-28T01:24:59;14.77;83.36
75190;HTU21D;69198;44.694;37.790;2023-04-28T01:26:00;14.77;83.40
75190;HTU21D;69198;44.694;37.790;2023-04-28T01:27:01;14.80;83.46
75190;HTU21D;69198;44.694;37.790;2023-04-28T01:28:02;14.78;83.47
75190;HTU21D;69198;44.694;37.790;2023-04-28T01:29:03;14.80;83.48
75190;HTU21D;69198;44.694;37.790;2023-04-28T01:30:07;14.80;83.49
75190;HTU21D;69198;44.694;37.790;2023-04-28T01:31:08;14.81;83.48
75190;HTU21D;69198;44.694;37.790;2023-04-28T01:32:10;14.82;83.50
75190;HTU21D;69198;44.694;37.790;2023-04-28T01:33:11;14.84;83.49
75190;HTU21D;69198;44.694;37.790;2023-04-28T01:34:12;14.85;83.47
75190;HTU21D;69198;44.694;37.790;2023-04-28T01:35:13;14.85;83.45
75190;HTU21D;69198;44.694;37.790;2023-04-28T01:36:14;14.88;83.52
75190;HTU21D;69198;44.694;37.790;2023-04-28T01:37:17;14.93;83.54
75190;HTU21D;69198;44.694;37.790;2023-04-28T01:38:18;14.94;83.52
75190;HTU21D;69198;44.694;37.790;2023-04-28T01:39:19;14.97;83.51
75190;HTU21D;69198;44.694;37.790;2023-04-28T01:40:20;14.98;83.47
75190;HTU21D;69198;44.694;37.790;2023-04-28T01:41:21;15.00;83.45
75190;HTU21D;69198;44.694;37.790;2023-04-28T01:42:22;15.01;83.42
75190;HTU21D;69198;44.694;37.790;2023-04-28T01:43:23;15.02;83.37
75190;HTU21D;69198;44.694;37.790;2023-04-28T01:44:26;15.03;83.35
75190;HTU21D;69198;44.694;37.790;2023-04-28T01:45:27;15.02;83.34
75190;HTU21D;69198;44.694;37.790;2023-04-28T01:46:28;15.03;83.37
75190;HTU21D;69198;44.694;37.790;2023-04-28T01:47:29;15.03;83.35
75190;HTU21D;69198;44.694;37.790;2023-04-28T01:48:30;15.01;83.32
75190;HTU21D;69198;44.694;37.790;2023-04-28T01:49:31;15.03;83.33
75190;HTU21D;69198;44.694;37.790;2023-04-28T01:50:32;15.03;83.36
75190;HTU21D;69198;44.694;37.790;2023-04-28T01:51:33;15.02;83.36
75190;HTU21D;69198;44.694;37.790;2023-04-28T01:52:35;15.04;83.29
75190;HTU21D;69198;44.694;37.790;2023-04-28T01:53:37;15.03;83.25
75190;HTU21D;69198;44.694;37.790;2023-04-28T01:54:38;15.04;83.20
75190;HTU21D;69198;44.694;37.790;2023-04-28T01:55:39;15.04;83.14
75190;HTU21D;69198;44.694;37.790;2023-04-28T01:56:40;15.06;83.13
75190;HTU21D;69198;44.694;37.790;2023-04-28T01:57:41;15.06;83.05
75190;HTU21D;69198;44.694;37.790;2023-04-28T01:58:43;15.09;82.94
75190;HTU21D;69198;44.694;37.790;2023-04-28T01:59:45;15.12;82.77
75190;HTU21D;69198;44.694;37.790;2023-04-28T02:00:47;15.15;82.58
75190;HTU21D;69198;44.694;37.790;2023-04-28T02:01:49;15.21;82.42
75190;HTU21D;69198;44.694;37.790;2023-04-28T02:02:50;15.25;82.26
75190;HTU21D;69198;44.694;37.790;2023-04-28T02:03:51;15.30;82.12
75190;HTU21D;69198;44.694;37.790;2023-04-28T02:04:52;15.34;82.00
75190;HTU21D;69198;44.694;37.790;2023-04-28T02:05:54;15.39;81.90
75190;HTU21D;69198;44.694;37.790;2023-04-28T02:06:55;15.42;81.81
75190;HTU21D;69198;44.694;37.790;2023-04-28T02:07:56;15.42;81.74
75190;HTU21D;69198;44.694;37.790;2023-04-28T02:08:57;15.45;81.67
75190;HTU21D;69198;44.694;37.790;2023-04-28T02:09:58;15.47;81.64
75190;HTU21D;69198;44.694;37.790;2023-04-28T02:10:59;15.49;81.55
75190;HTU21D;69198;44.694;37.790;2023-04-28T02:12:01;15.49;81.49
75190;HTU21D;69198;44.694;37.790;2023-04-28T02:13:02;15.51;81.47
75190;HTU21D;69198;44.694;37.790;2023-04-28T02:14:03;15.51;81.44
75190;HTU21D;69198;44.694;37.790;2023-04-28T02:15:05;15.52;81.43
75190;HTU21D;69198;44.694;37.790;2023-04-28T02:16:06;15.53;81.44
75190;HTU21D;69198;44.694;37.790;2023-04-28T02:17:07;15.54;81.46
75190;HTU21D;69198;44.694;37.790;2023-04-28T02:18:11;15.56;81.45
75190;HTU21D;69198;44.694;37.790;2023-04-28T02:19:14;15.55;81.43
75190;HTU21D;69198;44.694;37.790;2023-04-28T02:20:15;15.57;81.39
75190;HTU21D;69198;44.694;37.790;2023-04-28T02:21:17;15.59;81.40
75190;HTU21D;69198;44.694;37.790;2023-04-28T02:22:19;15.58;81.33
75190;HTU21D;69198;44.694;37.790;2023-04-28T02:23:20;15.59;81.32
75190;HTU21D;69198;44.694;37.790;2023-04-28T02:24:21;15.61;81.25
75190;HTU21D;69198;44.694;37.790;2023-04-28T02:25:24;15.63;81.19
75190;HTU21D;69198;44.694;37.790;2023-04-28T02:26:25;15.62;81.20
75190;HTU21D;69198;44.694;37.790;2023-04-28T02:27:26;15.63;81.15
75190;HTU21D;69198;44.694;37.790;2023-04-28T02:28:29;15.63;81.19
75190;HTU21D;69198;44.694;37.790;2023-04-28T02:29:31;15.65;81.26
75190;HTU21D;69198;44.694;37.790;2023-04-28T02:30:32;15.63;81.34
75190;HTU21D;69198;44.694;37.790;2023-04-28T02:31:33;15.66;81.39
75190;HTU21D;69198;44.694;37.790;2023-04-28T02:32:35;15.66;81.52
75190;HTU21D;69198;44.694;37.790;2023-04-28T02:33:36;15.66;81.62
75190;HTU21D;69198;44.694;37.790;2023-04-28T02:34:38;15.67;81.67
75190;HTU21D;69198;44.694;37.790;2023-04-28T02:35:39;15.66;81.72
75190;HTU21D;69198;44.694;37.790;2023-04-28T02:36:40;15.65;81.81
75190;HTU21D;69198;44.694;37.790;2023-04-28T02:37:41;15.63;81.85
75190;HTU21D;69198;44.694;37.790;2023-04-28T02:38:42;15.63;81.96
75190;HTU21D;69198;44.694;37.790;2023-04-28T02:39:45;15.62;82.07
75190;HTU21D;69198;44.694;37.790;2023-04-28T02:40:46;15.62;82.30
75190;HTU21D;69198;44.694;37.790;2023-04-28T02:41:47;15.63;82.39
75190;HTU21D;69198;44.694;37.790;2023-04-28T02:42:48;15.63;82.39
75190;HTU21D;69198;44.694;37.790;2023-04-28T02:43:49;15.65;82.42
75190;HTU21D;69198;44.694;37.790;2023-04-28T02:44:50;15.65;82.48
75190;HTU21D;69198;44.694;37.790;2023-04-28T02:45:52;15.66;82.53
75190;HTU21D;69198;44.694;37.790;2023-04-28T02:46:53;15.66;82.57
75190;HTU21D;69198;44.694;37.790;2023-04-28T02:47:54;15.66;82.60
75190;HTU21D;69198;44.694;37.790;2023-04-28T02:48:56;15.68;82.67
75190;HTU21D;69198;44.694;37.790;2023-04-28T02:49:57;15.69;82.70
75190;HTU21D;69198;44.694;37.790;2023-04-28T02:50:58;15.68;82.83
75190;HTU21D;69198;44.694;37.790;2023-04-28T02:52:00;15.69;82.91
75190;HTU21D;69198;44.694;37.790;2023-04-28T02:53:01;15.69;83.02
75190;HTU21D;69198;44.694;37.790;2023-04-28T02:54:02;15.67;83.13
75190;HTU21D;69198;44.694;37.790;2023-04-28T02:55:04;15.68;83.26
75190;HTU21D;69198;44.694;37.790;2023-04-28T02:56:05;15.67;83.34
75190;HTU21D;69198;44.694;37.790;2023-04-28T02:57:07;15.67;83.39
75190;HTU21D;69198;44.694;37.790;2023-04-28T02:58:08;15.66;83.45
75190;HTU21D;69198;44.694;37.790;2023-04-28T02:59:09;15.66;83.52
75190;HTU21D;69198;44.694;37.790;2023-04-28T03:00:11;15.67;83.60
75190;HTU21D;69198;44.694;37.790;2023-04-28T03:01:19;15.66;83.65
75190;HTU21D;69198;44.694;37.790;2023-04-28T03:02:20;15.66;83.68
75190;HTU21D;69198;44.694;37.790;2023-04-28T03:03:22;15.66;83.73
75190;HTU21D;69198;44.694;37.790;2023-04-28T03:04:23;15.67;83.81
75190;HTU21D;69198;44.694;37.790;2023-04-28T03:05:24;15.66;83.80
75190;HTU21D;69198;44.694;37.790;2023-04-28T03:06:25;15.69;83.83
75190;HTU21D;69198;44.694;37.790;2023-04-28T03:07:28;15.70;83.82
75190;HTU21D;69198;44.694;37.790;2023-04-28T03:08:29;15.71;83.83
75190;HTU21D;69198;44.694;37.790;2023-04-28T03:09:30;15.73;83.85
75190;HTU21D;69198;44.694;37.790;2023-04-28T03:10:31;15.73;83.85
75190;HTU21D;69198;44.694;37.790;2023-04-28T03:11:34;15.74;83.84
75190;HTU21D;69198;44.694;37.790;2023-04-28T03:12:37;15.75;83.81
75190;HTU21D;69198;44.694;37.790;2023-04-28T03:13:40;15.75;83.81
75190;HTU21D;69198;44.694;37.790;2023-04-28T03:14:41;15.76;83.78
75190;HTU21D;69198;44.694;37.790;2023-04-28T03:15:43;15.80;83.75
75190;HTU21D;69198;44.694;37.790;2023-04-28T03:16:45;15.80;83.74
75190;HTU21D;69198;44.694;37.790;2023-04-28T03:17:47;15.81;83.74
75190;HTU21D;69198;44.694;37.790;2023-04-28T03:18:48;15.81;83.62
75190;HTU21D;69198;44.694;37.790;2023-04-28T03:19:50;15.83;83.49
75190;HTU21D;69198;44.694;37.790;2023-04-28T03:20:51;15.84;83.32
75190;HTU21D;69198;44.694;37.790;2023-04-28T03:21:52;15.86;83.09
75190;HTU21D;69198;44.694;37.790;2023-04-28T03:22:53;15.89;82.81
75190;HTU21D;69198;44.694;37.790;2023-04-28T03:23:54;15.91;82.46
75190;HTU21D;69198;44.694;37.790;2023-04-28T03:24:55;15.95;82.10
75190;HTU21D;69198;44.694;37.790;2023-04-28T03:25:58;15.98;81.94
75190;HTU21D;69198;44.694;37.790;2023-04-28T03:27:00;16.00;81.73
75190;HTU21D;69198;44.694;37.790;2023-04-28T03:28:03;16.03;81.58
75190;HTU21D;69198;44.694;37.790;2023-04-28T03:29:05;16.05;81.27
75190;HTU21D;69198;44.694;37.790;2023-04-28T03:30:07;16.08;81.05
75190;HTU21D;69198;44.694;37.790;2023-04-28T03:31:08;16.13;80.72
75190;HTU21D;69198;44.694;37.790;2023-04-28T03:32:09;16.16;80.28
75190;HTU21D;69198;44.694;37.790;2023-04-28T03:33:10;16.17;79.99
75190;HTU21D;69198;44.694;37.790;2023-04-28T03:34:11;16.20;79.87
75190;HTU21D;69198;44.694;37.790;2023-04-28T03:35:13;16.24;79.77
75190;HTU21D;69198;44.694;37.790;2023-04-28T03:36:15;16.25;79.60
75190;HTU21D;69198;44.694;37.790;2023-04-28T03:37:16;16.29;79.46
75190;HTU21D;69198;44.694;37.790;2023-04-28T03:38:18;16.30;79.23
75190;HTU21D;69198;44.694;37.790;2023-04-28T03:39:20;16.32;78.95
75190;HTU21D;69198;44.694;37.790;2023-04-28T03:40:21;16.36;78.63
75190;HTU21D;69198;44.694;37.790;2023-04-28T03:41:48;16.35;78.56
75190;HTU21D;69198;44.694;37.790;2023-04-28T03:43:07;16.35;78.41
75190;HTU21D;69198;44.694;37.790;2023-04-28T03:44:13;16.37;78.22
75190;HTU21D;69198;44.694;37.790;2023-04-28T03:45:23;16.37;78.08
75190;HTU21D;69198;44.694;37.790;2023-04-28T03:46:24;16.42;77.92
75190;HTU21D;69198;44.694;37.790;2023-04-28T03:47:26;16.43;77.76
75190;HTU21D;69198;44.694;37.790;2023-04-28T03:48:28;16.45;77.61
75190;HTU21D;69198;44.694;37.790;2023-04-28T03:49:29;16.47;77.45
75190;HTU21D;69198;44.694;37.790;2023-04-28T03:50:31;16.48;77.31
75190;HTU21D;69198;44.694;37.790;2023-04-28T03:51:32;16.50;77.15
75190;HTU21D;69198;44.694;37.790;2023-04-28T03:52:34;16.50;77.08
75190;HTU21D;69198;44.694;37.790;2023-04-28T03:53:35;16.52;77.02
75190;HTU21D;69198;44.694;37.790;2023-04-28T03:54:36;16.52;76.96
75190;HTU21D;69198;44.694;37.790;2023-04-28T03:55:37;16.54;76.88
75190;HTU21D;69198;44.694;37.790;2023-04-28T03:56:38;16.52;76.82
75190;HTU21D;69198;44.694;37.790;2023-04-28T03:57:39;16.56;76.78
75190;HTU21D;69198;44.694;37.790;2023-04-28T03:58:40;16.55;76.73
75190;HTU21D;69198;44.694;37.790;2023-04-28T03:59:41;16.56;76.64
75190;HTU21D;69198;44.694;37.790;2023-04-28T04:00:44;16.57;76.60
75190;HTU21D;69198;44.694;37.790;2023-04-28T04:01:46;16.60;76.53
75190;HTU21D;69198;44.694;37.790;2023-04-28T04:02:47;16.60;76.46
75190;HTU21D;69198;44.694;37.790;2023-04-28T04:03:49;16.61;76.38
75190;HTU21D;69198;44.694;37.790;2023-04-28T04:04:52;16.63;76.28
75190;HTU21D;69198;44.694;37.790;2023-04-28T04:05:53;16.64;76.19
75190;HTU21D;69198;44.694;37.790;2023-04-28T04:06:56;16.65;76.15
75190;HTU21D;69198;44.694;37.790;2023-04-28T04:07:57;16.66;76.08
75190;HTU21D;69198;44.694;37.790;2023-04-28T04:08:58;16.65;76.02
75190;HTU21D;69198;44.694;37.790;2023-04-28T04:10:00;16.66;75.92
75190;HTU21D;69198;44.694;37.790;2023-04-28T04:11:01;16.67;75.88
75190;HTU21D;69198;44.694;37.790;2023-04-28T04:12:02;16.66;75.83
75190;HTU21D;69198;44.694;37.790;2023-04-28T04:13:03;16.69;75.81
75190;HTU21D;69198;44.694;37.790;2023-04-28T04:14:04;16.69;75.75
75190;HTU21D;69198;44.694;37.790;2023-04-28T04:15:06;16.71;75.73
75190;HTU21D;69198;44.694;37.790;2023-04-28T04:16:08;16.74;75.70
75190;HTU21D;69198;44.694;37.790;2023-04-28T04:17:09;16.78;75.67
75190;HTU21D;69198;44.694;37.790;2023-04-28T04:18:10;16.82;75.57
75190;HTU21D;69198;44.694;37.790;2023-04-28T04:19:40;16.85;75.54
75190;HTU21D;69198;44.694;37.790;2023-04-28T04:20:44;16.89;75.44
75190;HTU21D;69198;44.694;37.790;2023-04-28T04:21:45;16.91;75.36
75190;HTU21D;69198;44.694;37.790;2023-04-28T04:22:46;16.91;75.35
75190;HTU21D;69198;44.694;37.790;2023-04-28T04:23:48;16.90;75.36
75190;HTU21D;69198;44.694;37.790;2023-04-28T04:24:49;16.91;75.38
75190;HTU21D;69198;44.694;37.790;2023-04-28T04:25:50;16.89;75.41
75190;HTU21D;69198;44.694;37.790;2023-04-28T04:26:52;16.86;75.46
75190;HTU21D;69198;44.694;37.790;2023-04-28T04:28:02;16.82;75.55
75190;HTU21D;69198;44.694;37.790;2023-04-28T04:29:03;16.81;75.62
75190;HTU21D;69198;44.694;37.790;2023-04-28T04:30:06;16.78;75.73
75190;HTU21D;69198;44.694;37.790;2023-04-28T04:31:07;16.75;75.75
75190;HTU21D;69198;44.694;37.790;2023-04-28T04:32:09;16.73;75.75
75190;HTU21D;69198;44.694;37.790;2023-04-28T04:33:11;16.71;75.83
75190;HTU21D;69198;44.694;37.790;2023-04-28T04:34:12;16.69;75.92
75190;HTU21D;69198;44.694;37.790;2023-04-28T04:35:13;16.65;76.06
75190;HTU21D;69198;44.694;37.790;2023-04-28T04:36:15;16.60;76.20
75190;HTU21D;69198;44.694;37.790;2023-04-28T04:37:16;16.56;76.22
75190;HTU21D;69198;44.694;37.790;2023-04-28T04:38:24;16.48;76.28
75190;HTU21D;69198;44.694;37.790;2023-04-28T04:39:26;16.45;76.35
75190;HTU21D;69198;44.694;37.790;2023-04-28T04:40:27;16.44;76.44
75190;HTU21D;69198;44.694;37.790;2023-04-28T04:41:29;16.43;76.49
75190;HTU21D;69198;44.694;37.790;2023-04-28T04:42:47;16.39;76.50
75190;HTU21D;69198;44.694;37.790;2023-04-28T04:43:52;16.40;76.57
75190;HTU21D;69198;44.694;37.790;2023-04-28T04:44:54;16.41;76.61
75190;HTU21D;69198;44.694;37.790;2023-04-28T04:46:03;16.41;76.64
75190;HTU21D;69198;44.694;37.790;2023-04-28T04:47:05;16.44;76.67
75190;HTU21D;69198;44.694;37.790;2023-04-28T04:48:08;16.46;76.67
75190;HTU21D;69198;44.694;37.790;2023-04-28T04:49:09;16.48;76.66
75190;HTU21D;69198;44.694;37.790;2023-04-28T04:50:10;16.50;76.66
75190;HTU21D;69198;44.694;37.790;2023-04-28T04:51:11;16.51;76.66
75190;HTU21D;69198;44.694;37.790;2023-04-28T04:52:13;16.54;76.73
75190;HTU21D;69198;44.694;37.790;2023-04-28T04:53:14;16.60;76.85
75190;HTU21D;69198;44.694;37.790;2023-04-28T04:54:15;16.61;76.91
75190;HTU21D;69198;44.694;37.790;2023-04-28T04:55:18;16.62;76.92
75190;HTU21D;69198;44.694;37.790;2023-04-28T04:56:19;16.62;77.03
75190;HTU21D;69198;44.694;37.790;2023-04-28T04:57:20;16.64;77.08
75190;HTU21D;69198;44.694;37.790;2023-04-28T04:58:48;16.62;77.11
75190;HTU21D;69198;44.694;37.790;2023-04-28T05:00:11;16.64;77.16
75190;HTU21D;69198;44.694;37.790;2023-04-28T05:01:12;16.67;77.10
75190;HTU21D;69198;44.694;37.790;2023-04-28T05:02:15;16.72;76.99
75190;HTU21D;69198;44.694;37.790;2023-04-28T05:03:16;16.74;76.87
75190;HTU21D;69198;44.694;37.790;2023-04-28T05:04:18;16.79;76.77
75190;HTU21D;69198;44.694;37.790;2023-04-28T05:05:19;16.81;76.73
75190;HTU21D;69198;44.694;37.790;2023-04-28T05:06:22;16.85;76.73
75190;HTU21D;69198;44.694;37.790;2023-04-28T05:07:24;16.88;76.65
75190;HTU21D;69198;44.694;37.790;2023-04-28T05:08:27;16.92;76.57
75190;HTU21D;69198;44.694;37.790;2023-04-28T05:09:28;16.98;76.25
75190;HTU21D;69198;44.694;37.790;2023-04-28T05:10:30;17.01;75.93
75190;HTU21D;69198;44.694;37.790;2023-04-28T05:11:32;17.05;75.70
75190;HTU21D;69198;44.694;37.790;2023-04-28T05:12:33;17.08;75.63
75190;HTU21D;69198;44.694;37.790;2023-04-28T05:13:34;17.17;75.60
75190;HTU21D;69198;44.694;37.790;2023-04-28T05:14:37;17.30;75.31
75190;HTU21D;69198;44.694;37.790;2023-04-28T05:15:38;17.45;74.73
75190;HTU21D;69198;44.694;37.790;2023-04-28T05:17:15;17.58;74.28
75190;HTU21D;69198;44.694;37.790;2023-04-28T05:18:17;17.64;73.89
75190;HTU21D;69198;44.694;37.790;2023-04-28T05:19:19;17.68;73.58
75190;HTU21D;69198;44.694;37.790;2023-04-28T05:20:20;17.72;73.23
75190;HTU21D;69198;44.694;37.790;2023-04-28T05:21:21;17.75;72.87
75190;HTU21D;69198;44.694;37.790;2023-04-28T05:22:22;17.78;72.53
75190;HTU21D;69198;44.694;37.790;2023-04-28T05:23:24;17.78;72.25
75190;HTU21D;69198;44.694;37.790;2023-04-28T05:24:25;17.76;72.07
75190;HTU21D;69198;44.694;37.790;2023-04-28T05:25:26;17.76;71.99
75190;HTU21D;69198;44.694;37.790;2023-04-28T05:26:28;17.79;71.83
75190;HTU21D;69198;44.694;37.790;2023-04-28T05:27:33;17.83;71.70
75190;HTU21D;69198;44.694;37.790;2023-04-28T05:28:39;17.87;71.61
75190;HTU21D;69198;44.694;37.790;2023-04-28T05:29:40;17.84;71.50
75190;HTU21D;69198;44.694;37.790;2023-04-28T05:30:41;17.80;71.55
75190;HTU21D;69198;44.694;37.790;2023-04-28T05:31:46;17.77;71.59
75190;HTU21D;69198;44.694;37.790;2023-04-28T05:32:48;17.72;71.71
75190;HTU21D;69198;44.694;37.790;2023-04-28T05:33:49;17.69;71.92
75190;HTU21D;69198;44.694;37.790;2023-04-28T05:34:51;17.65;72.13
75190;HTU21D;69198;44.694;37.790;2023-04-28T05:35:52;17.63;72.14
75190;HTU21D;69198;44.694;37.790;2023-04-28T05:36:53;17.59;72.19
75190;HTU21D;69198;44.694;37.790;2023-04-28T05:37:58;17.55;72.35
75190;HTU21D;69198;44.694;37.790;2023-04-28T05:38:59;17.53;72.41
75190;HTU21D;69198;44.694;37.790;2023-04-28T05:40:00;17.50;72.38
75190;HTU21D;69198;44.694;37.790;2023-04-28T05:41:01;17.48;72.25
75190;HTU21D;69198;44.694;37.790;2023-04-28T05:42:03;17.41;72.11
75190;HTU21D;69198;44.694;37.790;2023-04-28T05:43:04;17.39;72.13
75190;HTU21D;69198;44.694;37.790;2023-04-28T05:44:05;17.35;72.21
75190;HTU21D;69198;44.694;37.790;2023-04-28T05:45:07;17.34;72.29
75190;HTU21D;69198;44.694;37.790;2023-04-28T05:46:09;17.31;72.37
75190;HTU21D;69198;44.694;37.790;2023-04-28T05:47:10;17.28;72.37
75190;HTU21D;69198;44.694;37.790;2023-04-28T05:48:11;17.24;72.35
75190;HTU21D;69198;44.694;37.790;2023-04-28T05:49:14;17.20;72.40
75190;HTU21D;69198;44.694;37.790;2023-04-28T05:50:15;17.16;72.26
75190;HTU21D;69198;44.694;37.790;2023-04-28T05:51:17;17.15;72.20
75190;HTU21D;69198;44.694;37.790;2023-04-28T05:52:19;17.10;72.22
75190;HTU21D;69198;44.694;37.790;2023-04-28T05:53:20;17.09;72.43
75190;HTU21D;69198;44.694;37.790;2023-04-28T05:54:22;17.06;72.73
75190;HTU21D;69198;44.694;37.790;2023-04-28T05:55:27;17.05;72.99
75190;HTU21D;69198;44.694;37.790;2023-04-28T05:56:28;17.03;73.03
75190;HTU21D;69198;44.694;37.790;2023-04-28T05:57:30;16.99;72.87
75190;HTU21D;69198;44.694;37.790;2023-04-28T05:58:32;16.98;72.70
75190;HTU21D;69198;44.694;37.790;2023-04-28T05:59:33;16.95;72.69
75190;HTU21D;69198;44.694;37.790;2023-04-28T06:00:34;16.92;72.71
75190;HTU21D;69198;44.694;37.790;2023-04-28T06:01:35;16.89;72.61
75190;HTU21D;69198;44.694;37.790;2023-04-28T06:02:38;16.86;72.65
75190;HTU21D;69198;44.694;37.790;2023-04-28T06:03:39;16.81;72.74
75190;HTU21D;69198;44.694;37.790;2023-04-28T06:04:41;16.80;72.87
75190;HTU21D;69198;44.694;37.790;2023-04-28T06:05:44;16.80;72.89
75190;HTU21D;69198;44.694;37.790;2023-04-28T06:06:46;16.81;72.93
75190;HTU21D;69198;44.694;37.790;2023-04-28T06:07:47;16.85;72.98
75190;HTU21D;69198;44.694;37.790;2023-04-28T06:08:48;16.87;72.95
75190;HTU21D;69198;44.694;37.790;2023-04-28T06:09:49;16.92;72.90
75190;HTU21D;69198;44.694;37.790;2023-04-28T06:10:50;16.96;72.83
75190;HTU21D;69198;44.694;37.790;2023-04-28T06:11:54;17.01;72.83
75190;HTU21D;69198;44.694;37.790;2023-04-28T06:12:55;17.06;72.87
75190;HTU21D;69198;44.694;37.790;2023-04-28T06:13:56;17.07;72.93
75190;HTU21D;69198;44.694;37.790;2023-04-28T06:14:59;17.05;73.23
75190;HTU21D;69198;44.694;37.790;2023-04-28T06:16:00;17.00;73.46
75190;HTU21D;69198;44.694;37.790;2023-04-28T06:17:01;16.94;73.78
75190;HTU21D;69198;44.694;37.790;2023-04-28T06:18:02;16.89;74.12
75190;HTU21D;69198;44.694;37.790;2023-04-28T06:19:06;16.85;74.39
75190;HTU21D;69198;44.694;37.790;2023-04-28T06:20:07;16.81;74.54
75190;HTU21D;69198;44.694;37.790;2023-04-28T06:21:11;16.77;74.89
75190;HTU21D;69198;44.694;37.790;2023-04-28T06:22:12;16.73;75.05
75190;HTU21D;69198;44.694;37.790;2023-04-28T06:23:13;16.73;75.25
75190;HTU21D;69198;44.694;37.790;2023-04-28T06:24:18;16.72;75.32